This is the latest recevied weather packets stored in our database for station/object AI5KP-13. If no packets are shown the sender has not sent any weather packets the latest 10 day(s).
| Time | Temp. | Humidity | Pressure | Rain* | Wind** | Luminosity | Snow |
|---|---|---|---|---|---|---|---|
| 1777391115 | 17.78° C | 94% | 1012.6 hPa | 39.62 mm | - | 13 W/m² | - |
| 1777390811 | 17.78° C | 93% | 1012 hPa | 25.91 mm | - | 14 W/m² | - |
| 1777390509 | 18.89° C | 91% | 1012.2 hPa | 3.05 mm | - | 7 W/m² | - |
| 1777390205 | 19.44° C | 87% | 1011.6 hPa | 0 mm | - | 7 W/m² | - |
| 1777389901 | 19.44° C | 85% | 1011.8 hPa | 0 mm | - | 12 W/m² | - |
| 1777389598 | 19.44° C | 84% | 1011.7 hPa | 0 mm | - | 14 W/m² | - |
| 1777389294 | 19.44° C | 83% | 1011.9 hPa | 0 mm | - | 18 W/m² | - |
| 1777388992 | 20° C | 83% | 1012 hPa | 0 mm | - | 42 W/m² | - |
| 1777388689 | 20° C | 82% | 1012.2 hPa | 0 mm | - | 34 W/m² | - |
| 1777388386 | 20° C | 81% | 1012.4 hPa | 0 mm | - | 34 W/m² | - |
| 1777388085 | 20.56° C | 79% | 1012.3 hPa | 0 mm | - | 29 W/m² | - |
| 1777387782 | 20.56° C | 79% | 1012.7 hPa | 0 mm | - | 65 W/m² | - |
| 1777387478 | 20.56° C | 78% | 1012.2 hPa | 0 mm | - | 118 W/m² | - |
| 1777387173 | 20° C | 79% | 1012.4 hPa | 0 mm | - | 173 W/m² | - |
| 1777386869 | 20.56° C | 77% | 1012.7 hPa | 0 mm | - | 168 W/m² | - |
| 1777386566 | 20° C | 78% | 1012.8 hPa | 0 mm | - | 185 W/m² | - |
| 1777386263 | 20.56° C | 78% | 1012.6 hPa | 0 mm | - | 261 W/m² | - |
| 1777385961 | 20.56° C | 77% | 1012.9 hPa | 0 mm | - | 277 W/m² | - |
| 1777385657 | 20° C | 79% | 1012.7 hPa | 0 mm | - | 261 W/m² | - |
| 1777385354 | 20° C | 78% | 1012.8 hPa | 0 mm | - | 345 W/m² | - |
| 1777385051 | 19.44° C | 82% | 1012.9 hPa | 0 mm | - | 201 W/m² | - |
| 1777384748 | 18.89° C | 82% | 1013.1 hPa | 0 mm | - | 179 W/m² | - |
| 1777384442 | 18.89° C | 81% | 1013 hPa | 0 mm | - | 104 W/m² | - |
| 1777384138 | 18.33° C | 82% | 1013.4 hPa | 0 mm | - | 93 W/m² | - |
| 1777383835 | 18.89° C | 82% | 1013.3 hPa | 0 mm | - | 118 W/m² | - |
* Rain latest hour (hover to see other rain measurements)
** Current wind speed in m/s (hover to see current wind gust speed)